^^
Datos históricos de la estación: Murcia-Puente Tocinos
Diario Informe para Octubre 12, 2018 Unidades:  Ambas    Inglés   Métrico
Diario Semanal Mensual Anual Configurable
  Máximo: Mínimo: Media:
Temperatura: 83.5 °F /  28.6 °C 64.6 °F /  18.1 °C 72.9 °F /  22.7 °C
Punto de rocio: 67.1 °F /  19.5 °C 61 °F /  16.1 °C 64.2 °F /  17.9 °C
Humedad: 91% 47% 76%
Velocidad viento: 8.5mph /  13.7km/h - 3.4mph /  5.4km/h
Racha viento: 15mph /  24.1km/h - -
Viento- - SE
Presión: 30.2 in /  1021.0 hPa 30 in /  1016.6 hPa -
Precipitación: 0 in /  0.0 mm    
Historical Graphs
 
 
Tabla de datos para Octubre 12, 2018
Hora Temperatura Punto de rocio Presión Viento Velocidad viento Racha viento Humedad Intensidad lluvia(por hora) Nubes
00:00 70.9 °F /  21.6 °C 65.5 °F /  18.6 °C 30in /  1016.6hPa Calm     83% 0in /  0.0mm CLR
00:05 70.7 °F /  21.5 °C 65.3 °F /  18.5 °C 30in /  1016.8hPa Calm     83% 0in /  0.0mm CLR
00:10 70.7 °F /  21.5 °C 65.3 °F /  18.5 °C 30in /  1016.8hPa Calm     83% 0in /  0.0mm CLR
00:15 70.5 °F /  21.4 °C 65.1 °F /  18.4 °C 30in /  1016.8hPa Calm     83% 0in /  0.0mm CLR
00:20 70.5 °F /  21.4 °C 65.5 °F /  18.6 °C 30in /  1016.9hPa Calm     84% 0in /  0.0mm CLR
00:25 70.5 °F /  21.4 °C 65.5 °F /  18.6 °C 30in /  1016.9hPa Calm     84% 0in /  0.0mm CLR
00:30 70.5 °F /  21.4 °C 65.8 °F /  18.8 °C 30in /  1016.9hPa Calm     85% 0in /  0.0mm CLR
00:35 70.5 °F /  21.4 °C 65.5 °F /  18.6 °C 30in /  1016.9hPa Calm     84% 0in /  0.0mm CLR
00:40 70.3 °F /  21.3 °C 65.7 °F /  18.7 °C 30in /  1016.9hPa Calm     85% 0in /  0.0mm CLR
00:45 70.3 °F /  21.3 °C 65.7 °F /  18.7 °C 30in /  1016.9hPa Calm     85% 0in /  0.0mm CLR
00:50 70.2 °F /  21.2 °C 65.5 °F /  18.6 °C 30in /  1017.1hPa Calm     85% 0in /  0.0mm CLR
00:55 70.2 °F /  21.2 °C 65.1 °F /  18.4 °C 30in /  1017.1hPa Calm     84% 0in /  0.0mm CLR
01:00 70 °F /  21.1 °C 64.9 °F /  18.3 °C 30in /  1017.1hPa Calm     84% 0in /  0.0mm CLR
01:05 70 °F /  21.1 °C 64.9 °F /  18.3 °C 30in /  1017.0hPa Calm   2.4mph /  3.9km/h 84% 0in /  0.0mm CLR
01:10 69.6 °F /  20.9 °C 64.6 °F /  18.1 °C 30in /  1017.0hPa Calm   4.7mph /  7.6km/h 84% 0in /  0.0mm CLR
01:15 69.4 °F /  20.8 °C 64.8 °F /  18.2 °C 30in /  1017.0hPa Calm   5.8mph /  9.3km/h 85% 0in /  0.0mm CLR
01:20 69.1 °F /  20.6 °C 64.4 °F /  18.0 °C 30in /  1016.9hPa SE 3.1mph /  5.0km/h 4.6mph /  7.4km/h 85% 0in /  0.0mm CLR
01:25 68.9 °F /  20.5 °C 64.6 °F /  18.1 °C 30in /  1016.9hPa SE 3.1mph /  5.0km/h 4.6mph /  7.4km/h 86% 0in /  0.0mm CLR
01:30 68.9 °F /  20.5 °C 64.6 °F /  18.1 °C 30in /  1016.9hPa SSE 3.1mph /  5.0km/h 5.8mph /  9.3km/h 86% 0in /  0.0mm CLR
01:35 68.9 °F /  20.5 °C 64.9 °F /  18.3 °C 30in /  1016.8hPa SSE 3.1mph /  5.0km/h 5.2mph /  8.4km/h 87% 0in /  0.0mm CLR
01:40 68.7 °F /  20.4 °C 64.8 °F /  18.2 °C 30in /  1016.8hPa SSE 3.6mph /  5.8km/h 4.7mph /  7.6km/h 87% 0in /  0.0mm CLR
01:45 68.7 °F /  20.4 °C 64.8 °F /  18.2 °C 30in /  1016.8hPa South 3.6mph /  5.8km/h 4.6mph /  7.4km/h 87% 0in /  0.0mm CLR
01:50 68.9 °F /  20.5 °C 65.1 °F /  18.4 °C 30in /  1016.9hPa SSW 3.6mph /  5.8km/h 5.2mph /  8.4km/h 88% 0in /  0.0mm CLR
01:55 68.9 °F /  20.5 °C 65.1 °F /  18.4 °C 30in /  1016.9hPa SW 3.6mph /  5.8km/h 5.8mph /  9.3km/h 88% 0in /  0.0mm CLR
02:00 68.9 °F /  20.5 °C 65.1 °F /  18.4 °C 30in /  1016.9hPa SW 5mph /  8.0km/h 5mph /  8.0km/h 88% 0in /  0.0mm CLR
02:05 69.1 °F /  20.6 °C 65.5 °F /  18.6 °C 30in /  1017.0hPa SW 4mph /  6.4km/h 3.5mph /  5.6km/h 88% 0in /  0.0mm CLR
02:10 69.1 °F /  20.6 °C 65.5 °F /  18.6 °C 30in /  1017.0hPa SW 2.9mph /  4.7km/h 4.6mph /  7.4km/h 88% 0in /  0.0mm CLR
02:15 69.1 °F /  20.6 °C 65.5 °F /  18.6 °C 30in /  1017.0hPa SW 2.9mph /  4.7km/h 4.6mph /  7.4km/h 88% 0in /  0.0mm CLR
02:20 69.1 °F /  20.6 °C 65.5 °F /  18.6 °C 30in /  1017.2hPa SW 2.9mph /  4.7km/h 5.8mph /  9.3km/h 88% 0in /  0.0mm CLR
02:25 69.3 °F /  20.7 °C 65.7 °F /  18.7 °C 30in /  1017.2hPa SW 2.9mph /  4.7km/h 5.4mph /  8.7km/h 88% 0in /  0.0mm CLR
02:30 69.3 °F /  20.7 °C 65.7 °F /  18.7 °C 30in /  1017.2hPa SW 3.6mph /  5.8km/h 4.7mph /  7.6km/h 88% 0in /  0.0mm CLR
02:35 69.1 °F /  20.6 °C 65.5 °F /  18.6 °C 30in /  1017.4hPa SW 3.6mph /  5.8km/h 5.8mph /  9.3km/h 88% 0in /  0.0mm CLR
02:40 69.1 °F /  20.6 °C 65.5 °F /  18.6 °C 30in /  1017.4hPa SSW 3.6mph /  5.8km/h 5.8mph /  9.3km/h 88% 0in /  0.0mm CLR
02:45 68.9 °F /  20.5 °C 65.1 °F /  18.4 °C 30in /  1017.4hPa SSW 3.6mph /  5.8km/h 6.9mph /  11.1km/h 88% 0in /  0.0mm CLR
02:50 68.7 °F /  20.4 °C 64.9 °F /  18.3 °C 30.1in /  1017.5hPa SSW 4mph /  6.4km/h 4.6mph /  7.4km/h 88% 0in /  0.0mm CLR
02:55 68.5 °F /  20.3 °C 64.8 °F /  18.2 °C 30.1in /  1017.5hPa SSE 4mph /  6.4km/h 5.8mph /  9.3km/h 88% 0in /  0.0mm CLR
03:00 68.4 °F /  20.2 °C 64.8 °F /  18.2 °C 30.1in /  1017.5hPa South 5mph /  8.0km/h 6mph /  9.7km/h 88% 0in /  0.0mm CLR
03:05 68.2 °F /  20.1 °C 64.6 °F /  18.1 °C 30in /  1017.3hPa SSW 4mph /  6.4km/h 3.6mph /  5.8km/h 88% 0in /  0.0mm CLR
03:10 68.2 °F /  20.1 °C 64.8 °F /  18.2 °C 30in /  1017.3hPa SSW 3.6mph /  5.8km/h 3.5mph /  5.6km/h 89% 0in /  0.0mm CLR
03:15 68.2 °F /  20.1 °C 64.8 °F /  18.2 °C 30in /  1017.3hPa South 3.6mph /  5.8km/h 4.6mph /  7.4km/h 89% 0in /  0.0mm CLR
03:20 68.2 °F /  20.1 °C 64.8 °F /  18.2 °C 30in /  1017.2hPa SSW 2.4mph /  3.9km/h 3.5mph /  5.6km/h 89% 0in /  0.0mm CLR
03:25 68.2 °F /  20.1 °C 64.8 °F /  18.2 °C 30in /  1017.2hPa SW 2.4mph /  3.9km/h 4.6mph /  7.4km/h 89% 0in /  0.0mm CLR
03:30 68.2 °F /  20.1 °C 64.8 °F /  18.2 °C 30in /  1017.2hPa SW 3.1mph /  5.0km/h 4.6mph /  7.4km/h 89% 0in /  0.0mm CLR
03:35 68.2 °F /  20.1 °C 64.8 °F /  18.2 °C 30in /  1017.2hPa SW 3.1mph /  5.0km/h 2.4mph /  3.9km/h 89% 0in /  0.0mm CLR
03:40 68.2 °F /  20.1 °C 64.8 °F /  18.2 °C 30in /  1017.2hPa SW 2mph /  3.2km/h 4.6mph /  7.4km/h 89% 0in /  0.0mm CLR
03:45 68.2 °F /  20.1 °C 64.8 °F /  18.2 °C 30in /  1017.2hPa WSW 2mph /  3.2km/h 4.6mph /  7.4km/h 89% 0in /  0.0mm CLR
03:50 68.2 °F /  20.1 °C 64.8 °F /  18.2 °C 30in /  1017.2hPa SW 3.1mph /  5.0km/h 4.6mph /  7.4km/h 89% 0in /  0.0mm CLR
03:55 68.2 °F /  20.1 °C 64.8 °F /  18.2 °C 30in /  1017.2hPa SW 3.1mph /  5.0km/h 2.4mph /  3.9km/h 89% 0in /  0.0mm CLR
04:00 68.2 °F /  20.1 °C 64.8 °F /  18.2 °C 30in /  1017.2hPa SW 2mph /  3.2km/h 4mph /  6.4km/h 89% 0in /  0.0mm CLR
04:05 68 °F /  20.0 °C 64.6 °F /  18.1 °C 30in /  1017.3hPa West 2.4mph /  3.9km/h 3.5mph /  5.6km/h 89% 0in /  0.0mm CLR
04:10 67.8 °F /  19.9 °C 64.6 °F /  18.1 °C 30in /  1017.3hPa West 1.8mph /  2.9km/h 1.2mph /  1.9km/h 89% 0in /  0.0mm CLR
04:15 67.8 °F /  19.9 °C 64.6 °F /  18.1 °C 30in /  1017.3hPa South 1.8mph /  2.9km/h 3.5mph /  5.6km/h 89% 0in /  0.0mm CLR
04:20 67.5 °F /  19.7 °C 63.9 °F /  17.7 °C 30in /  1017.2hPa South 1.8mph /  2.9km/h 3.6mph /  5.8km/h 88% 0in /  0.0mm CLR
04:25 67.1 °F /  19.5 °C 63.3 °F /  17.4 °C 30in /  1017.2hPa South 1.8mph /  2.9km/h 4.6mph /  7.4km/h 88% 0in /  0.0mm CLR
04:30 66.9 °F /  19.4 °C 63.7 °F /  17.6 °C 30in /  1017.2hPa South 2.9mph /  4.7km/h 3.5mph /  5.6km/h 89% 0in /  0.0mm CLR
04:35 66.9 °F /  19.4 °C 63.7 °F /  17.6 °C 30in /  1017.2hPa South 2.9mph /  4.7km/h 3.5mph /  5.6km/h 89% 0in /  0.0mm CLR
04:40 66.9 °F /  19.4 °C 63.9 °F /  17.7 °C 30in /  1017.2hPa South 2mph /  3.2km/h 2.4mph /  3.9km/h 90% 0in /  0.0mm CLR
04:45 67.1 °F /  19.5 °C 64 °F /  17.8 °C 30in /  1017.2hPa South 2mph /  3.2km/h 2.4mph /  3.9km/h 90% 0in /  0.0mm CLR
04:50 67.1 °F /  19.5 °C 63.7 °F /  17.6 °C 30in /  1017.2hPa South 1.4mph /  2.3km/h 2.3mph /  3.7km/h 89% 0in /  0.0mm CLR
04:55 67.1 °F /  19.5 °C 63.7 °F /  17.6 °C 30in /  1017.2hPa South 1.4mph /  2.3km/h   89% 0in /  0.0mm CLR
05:00 67.1 °F /  19.5 °C 63.7 °F /  17.6 °C 30in /  1017.2hPa South 1mph /  1.6km/h   89% 0in /  0.0mm CLR
05:05 67.1 °F /  19.5 °C 63.7 °F /  17.6 °C 30in /  1017.2hPa South 1.4mph /  2.3km/h   89% 0in /  0.0mm CLR
05:10 67.1 °F /  19.5 °C 63.7 °F /  17.6 °C 30in /  1017.2hPa Calm     89% 0in /  0.0mm CLR
05:15 67.3 °F /  19.6 °C 63.9 °F /  17.7 °C 30in /  1017.2hPa Calm     89% 0in /  0.0mm CLR
05:20 67.3 °F /  19.6 °C 63.9 °F /  17.7 °C 30in /  1017.2hPa Calm   2.3mph /  3.7km/h 89% 0in /  0.0mm CLR
05:25 67.3 °F /  19.6 °C 63.9 °F /  17.7 °C 30in /  1017.2hPa Calm   2.3mph /  3.7km/h 89% 0in /  0.0mm CLR
05:30 67.3 °F /  19.6 °C 63.9 °F /  17.7 °C 30in /  1017.2hPa South 1.4mph /  2.3km/h 2.3mph /  3.7km/h 89% 0in /  0.0mm CLR
05:35 67.3 °F /  19.6 °C 63.9 °F /  17.7 °C 30in /  1017.3hPa South 1.4mph /  2.3km/h 3.5mph /  5.6km/h 89% 0in /  0.0mm CLR
05:40 67.1 °F /  19.5 °C 63.7 °F /  17.6 °C 30in /  1017.3hPa WSW 1.4mph /  2.3km/h 3.6mph /  5.8km/h 89% 0in /  0.0mm CLR
05:45 67.1 °F /  19.5 °C 64 °F /  17.8 °C 30in /  1017.3hPa WSW 1.4mph /  2.3km/h 3.5mph /  5.6km/h 90% 0in /  0.0mm CLR
05:50 67.1 °F /  19.5 °C 64 °F /  17.8 °C 30.1in /  1017.5hPa WSW 2.4mph /  3.9km/h 3.5mph /  5.6km/h 90% 0in /  0.0mm CLR
05:55 67.1 °F /  19.5 °C 64 °F /  17.8 °C 30.1in /  1017.5hPa WSW 2.4mph /  3.9km/h 4.6mph /  7.4km/h 90% 0in /  0.0mm CLR
06:00 66.9 °F /  19.4 °C 63.9 °F /  17.7 °C 30.1in /  1017.5hPa WSW 2mph /  3.2km/h 4mph /  6.4km/h 90% 0in /  0.0mm CLR
06:05 66.9 °F /  19.4 °C 63.9 °F /  17.7 °C 30in /  1017.4hPa WSW 2mph /  3.2km/h   90% 0in /  0.0mm CLR
06:10 66.9 °F /  19.4 °C 63.9 °F /  17.7 °C 30in /  1017.4hPa Calm   4.6mph /  7.4km/h 90% 0in /  0.0mm CLR
06:15 66.7 °F /  19.3 °C 63.7 °F /  17.6 °C 30in /  1017.4hPa Calm   2.3mph /  3.7km/h 90% 0in /  0.0mm CLR
06:20 66.6 °F /  19.2 °C 63.1 °F /  17.3 °C 30.1in /  1017.5hPa SW 1.8mph /  2.9km/h   89% 0in /  0.0mm CLR
06:25 66.4 °F /  19.1 °C 63 °F /  17.2 °C 30.1in /  1017.5hPa WSW 1.8mph /  2.9km/h 4.6mph /  7.4km/h 89% 0in /  0.0mm CLR
06:30 66.4 °F /  19.1 °C 63.3 °F /  17.4 °C 30.1in /  1017.5hPa Calm     90% 0in /  0.0mm CLR
06:35 66.4 °F /  19.1 °C 63 °F /  17.2 °C 30.1in /  1017.6hPa Calm     89% 0in /  0.0mm CLR
06:40 66.4 °F /  19.1 °C 63.3 °F /  17.4 °C 30.1in /  1017.6hPa Calm     90% 0in /  0.0mm CLR
06:45 66.4 °F /  19.1 °C 63.3 °F /  17.4 °C 30.1in /  1017.6hPa Calm     90% 0in /  0.0mm CLR
06:50 66.4 °F /  19.1 °C 63.3 °F /  17.4 °C 30.1in /  1017.8hPa Calm     90% 0in /  0.0mm CLR
06:55 66.4 °F /  19.1 °C 63.3 °F /  17.4 °C 30.1in /  1017.8hPa Calm     90% 0in /  0.0mm CLR
07:00 66.2 °F /  19.0 °C 63 °F /  17.2 °C 30.1in /  1017.8hPa Calm     89% 0in /  0.0mm CLR
07:05 65.8 °F /  18.8 °C 62.4 °F /  16.9 °C 30.1in /  1017.8hPa Calm     89% 0in /  0.0mm CLR
07:10 65.7 °F /  18.7 °C 62.2 °F /  16.8 °C 30.1in /  1017.8hPa Calm   2.9mph /  4.7km/h 89% 0in /  0.0mm CLR
07:15 65.7 °F /  18.7 °C 62.6 °F /  17.0 °C 30.1in /  1017.8hPa Calm   3.5mph /  5.6km/h 90% 0in /  0.0mm CLR
07:20 65.5 °F /  18.6 °C 62.4 °F /  16.9 °C 30.1in /  1018.0hPa SW 2mph /  3.2km/h 2.3mph /  3.7km/h 90% 0in /  0.0mm CLR
07:25 65.3 °F /  18.5 °C 62.2 °F /  16.8 °C 30.1in /  1018.0hPa SSW 2mph /  3.2km/h 3.5mph /  5.6km/h 90% 0in /  0.0mm CLR
07:30 65.1 °F /  18.4 °C 62.1 °F /  16.7 °C 30.1in /  1018.0hPa SSW 2mph /  3.2km/h 2.3mph /  3.7km/h 90% 0in /  0.0mm CLR
07:35 65.1 °F /  18.4 °C 62.1 °F /  16.7 °C 30.1in /  1018.1hPa SSW 2mph /  3.2km/h 2.4mph /  3.9km/h 90% 0in /  0.0mm CLR
07:40 64.9 °F /  18.3 °C 62.2 °F /  16.8 °C 30.1in /  1018.1hPa SSW 2mph /  3.2km/h 3.5mph /  5.6km/h 91% 0in /  0.0mm CLR
07:45 65.1 °F /  18.4 °C 62.4 °F /  16.9 °C 30.1in /  1018.1hPa WSW 2mph /  3.2km/h 4.7mph /  7.6km/h 91% 0in /  0.0mm CLR
07:50 65.5 °F /  18.6 °C 62.8 °F /  17.1 °C 30.1in /  1018.3hPa WSW 2.4mph /  3.9km/h 4.6mph /  7.4km/h 91% 0in /  0.0mm CLR
07:55 65.7 °F /  18.7 °C 63 °F /  17.2 °C 30.1in /  1018.3hPa WSW 2.4mph /  3.9km/h 2.9mph /  4.7km/h 91% 0in /  0.0mm CLR
08:00 65.7 °F /  18.7 °C 63 °F /  17.2 °C 30.1in /  1018.3hPa WSW 2mph /  3.2km/h 5mph /  8.0km/h 91% 0in /  0.0mm CLR
08:05 65.8 °F /  18.8 °C 62.8 °F /  17.1 °C 30.1in /  1018.5hPa SW 2.4mph /  3.9km/h 2.3mph /  3.7km/h 90% 0in /  0.0mm CLR
08:10 65.5 °F /  18.6 °C 62.2 °F /  16.8 °C 30.1in /  1018.5hPa SSE 2mph /  3.2km/h 3.5mph /  5.6km/h 89% 0in /  0.0mm CLR
08:15 65.1 °F /  18.4 °C 61.9 °F /  16.6 °C 30.1in /  1018.5hPa SE 2mph /  3.2km/h 4.6mph /  7.4km/h 89% 0in /  0.0mm CLR
08:20 64.8 °F /  18.2 °C 61.3 °F /  16.3 °C 30.1in /  1018.8hPa SSE 2.4mph /  3.9km/h 4.6mph /  7.4km/h 89% 0in /  0.0mm CLR
08:25 64.6 °F /  18.1 °C 61.5 °F /  16.4 °C 30.1in /  1018.8hPa SSE 2.4mph /  3.9km/h 4.6mph /  7.4km/h 90% 0in /  0.0mm CLR
08:30 64.6 °F /  18.1 °C 61.9 °F /  16.6 °C 30.1in /  1018.8hPa SE 3.1mph /  5.0km/h 3.5mph /  5.6km/h 91% 0in /  0.0mm CLR
08:35 64.6 °F /  18.1 °C 61.9 °F /  16.6 °C 30.1in /  1019.1hPa SSE 3.1mph /  5.0km/h 4.7mph /  7.6km/h 91% 0in /  0.0mm CLR
08:40 64.6 °F /  18.1 °C 61.9 °F /  16.6 °C 30.1in /  1019.1hPa SSE 2.9mph /  4.7km/h 4.6mph /  7.4km/h 91% 0in /  0.0mm CLR
08:45 64.6 °F /  18.1 °C 61.9 °F /  16.6 °C 30.1in /  1019.1hPa SSE 2.9mph /  4.7km/h 6.9mph /  11.1km/h 91% 0in /  0.0mm CLR
08:50 64.6 °F /  18.1 °C 61.9 °F /  16.6 °C 30.1in /  1019.3hPa South 4mph /  6.4km/h 5.2mph /  8.4km/h 91% 0in /  0.0mm CLR
08:55 64.6 °F /  18.1 °C 61.9 °F /  16.6 °C 30.1in /  1019.3hPa South 4mph /  6.4km/h 5.8mph /  9.3km/h 91% 0in /  0.0mm CLR
09:00 64.8 °F /  18.2 °C 62.1 °F /  16.7 °C 30.1in /  1019.3hPa South 5mph /  8.0km/h 5mph /  8.0km/h 91% 0in /  0.0mm CLR
09:05 65.1 °F /  18.4 °C 62.4 °F /  16.9 °C 30.1in /  1019.5hPa South 4mph /  6.4km/h 3.5mph /  5.6km/h 91% 0in /  0.0mm CLR
09:10 65.3 °F /  18.5 °C 62.6 °F /  17.0 °C 30.1in /  1019.5hPa South 3.1mph /  5.0km/h 4.6mph /  7.4km/h 91% 0in /  0.0mm CLR
09:15 65.5 °F /  18.6 °C 62.4 °F /  16.9 °C 30.1in /  1019.5hPa South 3.1mph /  5.0km/h 4mph /  6.4km/h 90% 0in /  0.0mm CLR
09:20 65.8 °F /  18.8 °C 62.8 °F /  17.1 °C 30.1in /  1019.8hPa SSW 2.9mph /  4.7km/h 4.6mph /  7.4km/h 90% 0in /  0.0mm CLR
09:25 66.2 °F /  19.0 °C 63.1 °F /  17.3 °C 30.1in /  1019.8hPa SSW 2.9mph /  4.7km/h 5.8mph /  9.3km/h 90% 0in /  0.0mm CLR
09:30 66.6 °F /  19.2 °C 63.1 °F /  17.3 °C 30.1in /  1019.8hPa WSW 3.6mph /  5.8km/h 5.8mph /  9.3km/h 89% 0in /  0.0mm CLR
09:35 67.1 °F /  19.5 °C 63.3 °F /  17.4 °C 30.1in /  1019.9hPa SSW 3.6mph /  5.8km/h 6.9mph /  11.1km/h 88% 0in /  0.0mm CLR
09:40 67.5 °F /  19.7 °C 63.5 °F /  17.5 °C 30.1in /  1019.9hPa SW 4mph /  6.4km/h 5.8mph /  9.3km/h 87% 0in /  0.0mm CLR
09:45 67.8 °F /  19.9 °C 63.5 °F /  17.5 °C 30.1in /  1019.9hPa South 4mph /  6.4km/h 5.8mph /  9.3km/h 86% 0in /  0.0mm CLR
09:50 68 °F /  20.0 °C 63.3 °F /  17.4 °C 30.1in /  1020.3hPa WSW 4mph /  6.4km/h 5.8mph /  9.3km/h 85% 0in /  0.0mm CLR
09:55 68.4 °F /  20.2 °C 63.3 °F /  17.4 °C 30.1in /  1020.3hPa WSW 4mph /  6.4km/h 4.6mph /  7.4km/h 84% 0in /  0.0mm CLR
10:00 68.5 °F /  20.3 °C 63.5 °F /  17.5 °C 30.1in /  1020.3hPa SW 3mph /  4.8km/h 7mph /  11.3km/h 84% 0in /  0.0mm CLR
10:05 68.7 °F /  20.4 °C 63.3 °F /  17.4 °C 30.1in /  1020.4hPa WNW 3.6mph /  5.8km/h 4.6mph /  7.4km/h 83% 0in /  0.0mm CLR
10:10 69.1 °F /  20.6 °C 63.3 °F /  17.4 °C 30.1in /  1020.4hPa West 3.6mph /  5.8km/h 4.6mph /  7.4km/h 82% 0in /  0.0mm CLR
10:15 69.3 °F /  20.7 °C 63.5 °F /  17.5 °C 30.1in /  1020.4hPa SSW 3.6mph /  5.8km/h 4.6mph /  7.4km/h 82% 0in /  0.0mm CLR
10:20 69.6 °F /  20.9 °C 63.5 °F /  17.5 °C 30.1in /  1020.5hPa South 2.9mph /  4.7km/h 4.6mph /  7.4km/h 81% 0in /  0.0mm CLR
10:25 70 °F /  21.1 °C 63.5 °F /  17.5 °C 30.1in /  1020.5hPa South 2.9mph /  4.7km/h 4.6mph /  7.4km/h 80% 0in /  0.0mm CLR
10:30 70.2 °F /  21.2 °C 63.7 °F /  17.6 °C 30.1in /  1020.5hPa SSW 3.1mph /  5.0km/h 4.6mph /  7.4km/h 80% 0in /  0.0mm CLR
10:35 70.3 °F /  21.3 °C 63.5 °F /  17.5 °C 30.1in /  1020.7hPa ESE 3.1mph /  5.0km/h 4.7mph /  7.6km/h 79% 0in /  0.0mm CLR
10:40 70.7 °F /  21.5 °C 63.9 °F /  17.7 °C 30.1in /  1020.7hPa South 3.1mph /  5.0km/h 3.5mph /  5.6km/h 79% 0in /  0.0mm CLR
10:45 70.9 °F /  21.6 °C 63.7 °F /  17.6 °C 30.1in /  1020.7hPa WSW 3.1mph /  5.0km/h 3.1mph /  5.0km/h 78% 0in /  0.0mm CLR
10:50 70.9 °F /  21.6 °C 63.3 °F /  17.4 °C 30.1in /  1020.8hPa WSW 2.4mph /  3.9km/h 4.6mph /  7.4km/h 77% 0in /  0.0mm CLR
10:55 70.9 °F /  21.6 °C 63.7 °F /  17.6 °C 30.1in /  1020.8hPa WSW 2.4mph /  3.9km/h 4.6mph /  7.4km/h 78% 0in /  0.0mm CLR
11:00 70.9 °F /  21.6 °C 63.3 °F /  17.4 °C 30.1in /  1020.8hPa WSW 3mph /  4.8km/h 6mph /  9.7km/h 77% 0in /  0.0mm CLR
11:05 70.9 °F /  21.6 °C 63.3 °F /  17.4 °C 30.2in /  1020.9hPa WSW 3.6mph /  5.8km/h 6.9mph /  11.1km/h 77% 0in /  0.0mm CLR
11:10 71.1 °F /  21.7 °C 63.9 °F /  17.7 °C 30.2in /  1020.9hPa WSW 4mph /  6.4km/h 4.6mph /  7.4km/h 78% 0in /  0.0mm CLR
11:15 71.4 °F /  21.9 °C 63.5 °F /  17.5 °C 30.2in /  1020.9hPa West 4mph /  6.4km/h 5.8mph /  9.3km/h 76% 0in /  0.0mm CLR
11:20 71.8 °F /  22.1 °C 63.9 °F /  17.7 °C 30.2in /  1020.9hPa SSW 3.1mph /  5.0km/h 5.8mph /  9.3km/h 76% 0in /  0.0mm CLR
11:25 72 °F /  22.2 °C 63.7 °F /  17.6 °C 30.2in /  1020.9hPa WNW 3.1mph /  5.0km/h 5.9mph /  9.5km/h 75% 0in /  0.0mm CLR
11:30 72.1 °F /  22.3 °C 63.9 °F /  17.7 °C 30.2in /  1020.9hPa SSW 3.6mph /  5.8km/h 5.8mph /  9.3km/h 75% 0in /  0.0mm CLR
11:35 72.3 °F /  22.4 °C 63.9 °F /  17.7 °C 30.2in /  1021.0hPa SSW 3.6mph /  5.8km/h 6.9mph /  11.1km/h 75% 0in /  0.0mm CLR
11:40 72.3 °F /  22.4 °C 63.9 °F /  17.7 °C 30.2in /  1021.0hPa WSW 4.3mph /  6.9km/h 5.8mph /  9.3km/h 75% 0in /  0.0mm CLR
11:45 72.9 °F /  22.7 °C 64 °F /  17.8 °C 30.2in /  1021.0hPa South 4.3mph /  6.9km/h 4.6mph /  7.4km/h 74% 0in /  0.0mm CLR
11:50 73.2 °F /  22.9 °C 64 °F /  17.8 °C 30.2in /  1021.0hPa South 4mph /  6.4km/h 8.7mph /  14.0km/h 73% 0in /  0.0mm CLR
11:55 73.6 °F /  23.1 °C 64.4 °F /  18.0 °C 30.2in /  1021.0hPa South 4mph /  6.4km/h 5.8mph /  9.3km/h 73% 0in /  0.0mm CLR
12:00 73.8 °F /  23.2 °C 64.2 °F /  17.9 °C 30.2in /  1021.0hPa South 5mph /  8.0km/h 7mph /  11.3km/h 72% 0in /  0.0mm CLR
12:05 74.1 °F /  23.4 °C 64 °F /  17.8 °C 30.2in /  1021.0hPa South 5.2mph /  8.4km/h 5.8mph /  9.3km/h 71% 0in /  0.0mm CLR
12:10 74.5 °F /  23.6 °C 64.6 °F /  18.1 °C 30.2in /  1021.0hPa SSW 4mph /  6.4km/h 6.9mph /  11.1km/h 71% 0in /  0.0mm CLR
12:15 74.8 °F /  23.8 °C 64.4 °F /  18.0 °C 30.2in /  1021.0hPa South 4mph /  6.4km/h 6.9mph /  11.1km/h 70% 0in /  0.0mm CLR
12:20 75.2 °F /  24.0 °C 64.2 °F /  17.9 °C 30.2in /  1021.0hPa SSE 4mph /  6.4km/h 6.9mph /  11.1km/h 69% 0in /  0.0mm CLR
12:25 75.6 °F /  24.2 °C 64.2 °F /  17.9 °C 30.2in /  1021.0hPa SSE 4mph /  6.4km/h 4.6mph /  7.4km/h 68% 0in /  0.0mm CLR
12:30 76.1 °F /  24.5 °C 64.8 °F /  18.2 °C 30.2in /  1021.0hPa SW 4.3mph /  6.9km/h 5.8mph /  9.3km/h 68% 0in /  0.0mm CLR
12:35 76.5 °F /  24.7 °C 64.2 °F /  17.9 °C 30.2in /  1021.0hPa SE 4.3mph /  6.9km/h 4.6mph /  7.4km/h 66% 0in /  0.0mm CLR
12:40 76.6 °F /  24.8 °C 64.4 °F /  18.0 °C 30.2in /  1021.0hPa SSE 3.1mph /  5.0km/h 6.2mph /  10.0km/h 66% 0in /  0.0mm CLR
12:45 76.6 °F /  24.8 °C 64 °F /  17.8 °C 30.2in /  1021.0hPa SE 3.1mph /  5.0km/h 5.8mph /  9.3km/h 65% 0in /  0.0mm CLR
12:50 76.8 °F /  24.9 °C 64.2 °F /  17.9 °C 30.1in /  1020.8hPa ESE 4.3mph /  6.9km/h 4.6mph /  7.4km/h 65% 0in /  0.0mm CLR
12:55 77.4 °F /  25.2 °C 64.2 °F /  17.9 °C 30.1in /  1020.8hPa ESE 4.3mph /  6.9km/h 4.6mph /  7.4km/h 64% 0in /  0.0mm CLR
13:00 77.5 °F /  25.3 °C 64.4 °F /  18.0 °C 30.1in /  1020.8hPa ESE 3mph /  4.8km/h 5mph /  8.0km/h 64% 0in /  0.0mm CLR
13:05 77.9 °F /  25.5 °C 64.2 °F /  17.9 °C 30.1in /  1020.8hPa SSW 3.1mph /  5.0km/h 4.6mph /  7.4km/h 63% 0in /  0.0mm CLR
13:10 78.3 °F /  25.7 °C 64.2 °F /  17.9 °C 30.1in /  1020.8hPa ESE 2mph /  3.2km/h 5.8mph /  9.3km/h 62% 0in /  0.0mm CLR
13:15 78.6 °F /  25.9 °C 64 °F /  17.8 °C 30.1in /  1020.8hPa ESE 2mph /  3.2km/h 6.9mph /  11.1km/h 61% 0in /  0.0mm FEW
13:20 78.4 °F /  25.8 °C 63.9 °F /  17.7 °C 30.1in /  1020.7hPa ESE 3.1mph /  5.0km/h 5.2mph /  8.4km/h 61% 0in /  0.0mm CLR
13:25 78.4 °F /  25.8 °C 64.2 °F /  17.9 °C 30.1in /  1020.7hPa NNE 3.1mph /  5.0km/h 4.6mph /  7.4km/h 62% 0in /  0.0mm FEW
13:30 78.6 °F /  25.9 °C 64.6 °F /  18.1 °C 30.1in /  1020.7hPa North 2.9mph /  4.7km/h 2.3mph /  3.7km/h 62% 0in /  0.0mm CLR
13:35 79 °F /  26.1 °C 64.4 °F /  18.0 °C 30.1in /  1020.5hPa ENE 2.9mph /  4.7km/h 5.8mph /  9.3km/h 61% 0in /  0.0mm FEW
13:40 79.3 °F /  26.3 °C 64.2 °F /  17.9 °C 30.1in /  1020.5hPa NNW 2.9mph /  4.7km/h 5.8mph /  9.3km/h 60% 0in /  0.0mm CLR
13:45 79.5 °F /  26.4 °C 64.4 °F /  18.0 °C 30.1in /  1020.5hPa NE 2.9mph /  4.7km/h 4.7mph /  7.6km/h 60% 0in /  0.0mm FEW
13:50 79.5 °F /  26.4 °C 64.4 °F /  18.0 °C 30.1in /  1020.4hPa NNE 2.9mph /  4.7km/h 4.6mph /  7.4km/h 60% 0in /  0.0mm CLR
13:55 79.5 °F /  26.4 °C 64.4 °F /  18.0 °C 30.1in /  1020.4hPa NW 2.9mph /  4.7km/h 4.6mph /  7.4km/h 60% 0in /  0.0mm FEW
14:00 80.1 °F /  26.7 °C 64.4 °F /  18.0 °C 30.1in /  1020.4hPa North 2mph /  3.2km/h 7mph /  11.3km/h 59% 0in /  0.0mm FEW
14:05 79.7 °F /  26.5 °C 64 °F /  17.8 °C 30.1in /  1020.2hPa NW 2.4mph /  3.9km/h 6.9mph /  11.1km/h 59% 0in /  0.0mm FEW
14:10 79.7 °F /  26.5 °C 64 °F /  17.8 °C 30.1in /  1020.2hPa NNW 4mph /  6.4km/h 4.6mph /  7.4km/h 59% 0in /  0.0mm CLR
14:15 79.9 °F /  26.6 °C 63.9 °F /  17.7 °C 30.1in /  1020.2hPa NNE 4mph /  6.4km/h 2.9mph /  4.7km/h 58% 0in /  0.0mm FEW
14:20 80.2 °F /  26.8 °C 64 °F /  17.8 °C 30.1in /  1020.1hPa North 2.4mph /  3.9km/h 5.8mph /  9.3km/h 58% 0in /  0.0mm CLR
14:25 80.4 °F /  26.9 °C 63.9 °F /  17.7 °C 30.1in /  1020.1hPa WNW 2.4mph /  3.9km/h 4.7mph /  7.6km/h 57% 0in /  0.0mm FEW
14:30 80.4 °F /  26.9 °C 63.9 °F /  17.7 °C 30.1in /  1020.1hPa West 3.6mph /  5.8km/h 5.8mph /  9.3km/h 57% 0in /  0.0mm CLR
14:35 80.4 °F /  26.9 °C 63.3 °F /  17.4 °C 30.1in /  1019.9hPa NW 3.6mph /  5.8km/h 5.8mph /  9.3km/h 56% 0in /  0.0mm FEW
14:40 80.6 °F /  27.0 °C 64 °F /  17.8 °C 30.1in /  1019.9hPa North 2.4mph /  3.9km/h 4mph /  6.4km/h 57% 0in /  0.0mm CLR
14:45 80.8 °F /  27.1 °C 63.1 °F /  17.3 °C 30.1in /  1019.9hPa ENE 2.4mph /  3.9km/h 9.2mph /  14.8km/h 55% 0in /  0.0mm FEW
14:50 80.8 °F /  27.1 °C 63.1 °F /  17.3 °C 30.1in /  1019.7hPa ENE 4mph /  6.4km/h 9.2mph /  14.8km/h 55% 0in /  0.0mm CLR
14:55 80.8 °F /  27.1 °C 63.7 °F /  17.6 °C 30.1in /  1019.7hPa East 4mph /  6.4km/h 4.6mph /  7.4km/h 56% 0in /  0.0mm FEW
15:00 81 °F /  27.2 °C 62.8 °F /  17.1 °C 30.1in /  1019.7hPa ENE 3mph /  4.8km/h 6mph /  9.7km/h 54% 0in /  0.0mm FEW
15:05 81.3 °F /  27.4 °C 62.6 °F /  17.0 °C 30.1in /  1019.4hPa East 3.1mph /  5.0km/h 5.9mph /  9.5km/h 53% 0in /  0.0mm FEW
15:10 81.3 °F /  27.4 °C 62.1 °F /  16.7 °C 30.1in /  1019.4hPa NNE 4mph /  6.4km/h 5.8mph /  9.3km/h 52% 0in /  0.0mm CLR
15:15 81.3 °F /  27.4 °C 62.6 °F /  17.0 °C 30.1in /  1019.4hPa East 4mph /  6.4km/h 8.1mph /  13.0km/h 53% 0in /  0.0mm FEW
15:20 81.3 °F /  27.4 °C 63.1 °F /  17.3 °C 30.1in /  1019.3hPa NE 4mph /  6.4km/h 8.1mph /  13.0km/h 54% 0in /  0.0mm CLR
15:25 81.5 °F /  27.5 °C 62.8 °F /  17.1 °C 30.1in /  1019.3hPa NNW 4mph /  6.4km/h 6.9mph /  11.1km/h 53% 0in /  0.0mm FEW
15:30 81.7 °F /  27.6 °C 63 °F /  17.2 °C 30.1in /  1019.3hPa ENE 4.7mph /  7.6km/h 5.8mph /  9.3km/h 53% 0in /  0.0mm CLR
15:35 82 °F /  27.8 °C 62.1 °F /  16.7 °C 30.1in /  1019.2hPa North 4.7mph /  7.6km/h 9.2mph /  14.8km/h 51% 0in /  0.0mm FEW
15:40 82.4 °F /  28.0 °C 63 °F /  17.2 °C 30.1in /  1019.2hPa NE 3.6mph /  5.8km/h 4.6mph /  7.4km/h 52% 0in /  0.0mm CLR
15:45 82.4 °F /  28.0 °C 63.5 °F /  17.5 °C 30.1in /  1019.2hPa NE 3.6mph /  5.8km/h 8.1mph /  13.0km/h 53% 0in /  0.0mm FEW
15:50 82.6 °F /  28.1 °C 63.7 °F /  17.6 °C 30.1in /  1018.9hPa North 4.3mph /  6.9km/h 5.8mph /  9.3km/h 53% 0in /  0.0mm CLR
15:55 82.8 °F /  28.2 °C 63.3 °F /  17.4 °C 30.1in /  1018.9hPa NE 4.3mph /  6.9km/h 5.2mph /  8.4km/h 52% 0in /  0.0mm FEW
16:00 82.8 °F /  28.2 °C 62.8 °F /  17.1 °C 30.1in /  1018.9hPa North 5mph /  8.0km/h 7mph /  11.3km/h 51% 0in /  0.0mm FEW
16:05 82.6 °F /  28.1 °C 61.5 °F /  16.4 °C 30.1in /  1018.8hPa NNW 4mph /  6.4km/h 9.2mph /  14.8km/h 49% 0in /  0.0mm FEW
16:10 82.6 °F /  28.1 °C 61.5 °F /  16.4 °C 30.1in /  1018.8hPa North 5.2mph /  8.4km/h 11.5mph /  18.5km/h 49% 0in /  0.0mm CLR
16:15 82.6 °F /  28.1 °C 61 °F /  16.1 °C 30.1in /  1018.8hPa North 5.2mph /  8.4km/h 8.1mph /  13.0km/h 48% 0in /  0.0mm FEW
16:20 82.9 °F /  28.3 °C 62.4 °F /  16.9 °C 30.1in /  1018.8hPa NE 5.9mph /  9.5km/h 6.9mph /  11.1km/h 50% 0in /  0.0mm CLR
16:25 82.9 °F /  28.3 °C 61.9 °F /  16.6 °C 30.1in /  1018.8hPa NNE 5.9mph /  9.5km/h 11.5mph /  18.5km/h 49% 0in /  0.0mm FEW
16:30 83.1 °F /  28.4 °C 62.1 °F /  16.7 °C 30.1in /  1018.8hPa NE 5.4mph /  8.7km/h 11.5mph /  18.5km/h 49% 0in /  0.0mm CLR
16:35 83.1 °F /  28.4 °C 62.6 °F /  17.0 °C 30.1in /  1018.8hPa NE 5.4mph /  8.7km/h 6.9mph /  11.1km/h 50% 0in /  0.0mm FEW
16:40 83.3 °F /  28.5 °C 62.1 °F /  16.7 °C 30.1in /  1018.8hPa NW 6.2mph /  10.0km/h 9.2mph /  14.8km/h 49% 0in /  0.0mm CLR
16:45 83.5 °F /  28.6 °C 62.2 °F /  16.8 °C 30.1in /  1018.8hPa NE 6.2mph /  10.0km/h 7.4mph /  11.9km/h 49% 0in /  0.0mm FEW
16:50 83.5 °F /  28.6 °C 61.7 °F /  16.5 °C 30.1in /  1018.6hPa ENE 4.3mph /  6.9km/h 8.1mph /  13.0km/h 48% 0in /  0.0mm CLR
16:55 83.5 °F /  28.6 °C 61.7 °F /  16.5 °C 30.1in /  1018.6hPa NE 4.3mph /  6.9km/h 8.1mph /  13.0km/h 48% 0in /  0.0mm FEW
17:00 83.5 °F /  28.6 °C 61.7 °F /  16.5 °C 30.1in /  1018.6hPa NE 6mph /  9.7km/h 8mph /  12.9km/h 48% 0in /  0.0mm FEW
17:05 83.5 °F /  28.6 °C 61.2 °F /  16.2 °C 30.1in /  1018.5hPa North 5.4mph /  8.7km/h 9.2mph /  14.8km/h 47% 0in /  0.0mm FEW
17:10 83.5 °F /  28.6 °C 61.7 °F /  16.5 °C 30.1in /  1018.5hPa SE 5.2mph /  8.4km/h 9.2mph /  14.8km/h 48% 0in /  0.0mm CLR
17:15 83.5 °F /  28.6 °C 61.7 °F /  16.5 °C 30.1in /  1018.5hPa NE 5.2mph /  8.4km/h 10.4mph /  16.7km/h 48% 0in /  0.0mm CLR
17:20 83.5 °F /  28.6 °C 62.2 °F /  16.8 °C 30.1in /  1018.4hPa NNE 6.2mph /  10.0km/h 9.2mph /  14.8km/h 49% 0in /  0.0mm CLR
17:25 83.5 °F /  28.6 °C 61.7 °F /  16.5 °C 30.1in /  1018.4hPa NNE 6.2mph /  10.0km/h 9.2mph /  14.8km/h 48% 0in /  0.0mm CLR
17:30 83.5 °F /  28.6 °C 62.2 °F /  16.8 °C 30.1in /  1018.4hPa NE 6.2mph /  10.0km/h 13.8mph /  22.2km/h 49% 0in /  0.0mm CLR
17:35 83.1 °F /  28.4 °C 62.6 °F /  17.0 °C 30.1in /  1018.4hPa NNE 6.2mph /  10.0km/h 11.5mph /  18.5km/h 50% 0in /  0.0mm CLR
17:40 82.9 °F /  28.3 °C 62.4 °F /  16.9 °C 30.1in /  1018.4hPa ENE 6.9mph /  11.1km/h 12.7mph /  20.4km/h 50% 0in /  0.0mm CLR
17:45 82.9 °F /  28.3 °C 63 °F /  17.2 °C 30.1in /  1018.4hPa NNE 6.9mph /  11.1km/h 10.4mph /  16.7km/h 51% 0in /  0.0mm CLR
17:50 82.8 °F /  28.2 °C 63.3 °F /  17.4 °C 30.1in /  1018.5hPa NE 7.4mph /  11.9km/h 15mph /  24.1km/h 52% 0in /  0.0mm CLR
17:55 82.4 °F /  28.0 °C 63.5 °F /  17.5 °C 30.1in /  1018.5hPa NNE 7.4mph /  11.9km/h 10.4mph /  16.7km/h 53% 0in /  0.0mm CLR
18:00 82.2 °F /  27.9 °C 64 °F /  17.8 °C 30.1in /  1018.5hPa NE 8mph /  12.9km/h 13mph /  20.9km/h 54% 0in /  0.0mm CLR
18:05 82 °F /  27.8 °C 63.9 °F /  17.7 °C 30.1in /  1018.6hPa NE 8.1mph /  13.0km/h 10.4mph /  16.7km/h 54% 0in /  0.0mm CLR
18:10 82 °F /  27.8 °C 63.9 °F /  17.7 °C 30.1in /  1018.6hPa NE 8.1mph /  13.0km/h 11.5mph /  18.5km/h 54% 0in /  0.0mm CLR
18:15 81.9 °F /  27.7 °C 64 °F /  17.8 °C 30.1in /  1018.6hPa NE 8.1mph /  13.0km/h 11.5mph /  18.5km/h 55% 0in /  0.0mm CLR
18:20 81.7 °F /  27.6 °C 64.6 °F /  18.1 °C 30.1in /  1018.4hPa NE 7.4mph /  11.9km/h 15mph /  24.1km/h 56% 0in /  0.0mm CLR
18:25 81.3 °F /  27.4 °C 64.6 °F /  18.1 °C 30.1in /  1018.4hPa ESE 7.4mph /  11.9km/h 8.1mph /  13.0km/h 57% 0in /  0.0mm CLR
18:30 81.1 °F /  27.3 °C 64.9 °F /  18.3 °C 30.1in /  1018.4hPa East 8.5mph /  13.7km/h 8.1mph /  13.0km/h 58% 0in /  0.0mm CLR
18:35 81.1 °F /  27.3 °C 64.9 °F /  18.3 °C 30.1in /  1018.5hPa NE 8.5mph /  13.7km/h 9.2mph /  14.8km/h 58% 0in /  0.0mm CLR
18:40 80.8 °F /  27.1 °C 65.1 °F /  18.4 °C 30.1in /  1018.5hPa ENE 5.4mph /  8.7km/h 6.9mph /  11.1km/h 59% 0in /  0.0mm CLR
18:45 80.6 °F /  27.0 °C 64.9 °F /  18.3 °C 30.1in /  1018.5hPa ENE 5.4mph /  8.7km/h 9.2mph /  14.8km/h 59% 0in /  0.0mm CLR
18:50 80.2 °F /  26.8 °C 64.6 °F /  18.1 °C 30.1in /  1018.7hPa ESE 5.4mph /  8.7km/h 6.9mph /  11.1km/h 59% 0in /  0.0mm CLR
18:55 80.1 °F /  26.7 °C 64.9 °F /  18.3 °C 30.1in /  1018.7hPa ENE 5.4mph /  8.7km/h 9.2mph /  14.8km/h 60% 0in /  0.0mm CLR
19:00 79.9 °F /  26.6 °C 64.8 °F /  18.2 °C 30.1in /  1018.7hPa ENE 5mph /  8.0km/h 9mph /  14.5km/h 60% 0in /  0.0mm CLR
19:05 79.5 °F /  26.4 °C 64.9 °F /  18.3 °C 30.1in /  1019.0hPa East 5.2mph /  8.4km/h 6.9mph /  11.1km/h 61% 0in /  0.0mm CLR
19:10 79.3 °F /  26.3 °C 65.1 °F /  18.4 °C 30.1in /  1019.0hPa East 5.2mph /  8.4km/h 5.8mph /  9.3km/h 62% 0in /  0.0mm CLR
19:15 79.2 °F /  26.2 °C 65.5 °F /  18.6 °C 30.1in /  1019.0hPa East 5.2mph /  8.4km/h 6.9mph /  11.1km/h 63% 0in /  0.0mm CLR
19:20 78.8 °F /  26.0 °C 65.7 °F /  18.7 °C 30.1in /  1019.1hPa ESE 4mph /  6.4km/h 6.9mph /  11.1km/h 64% 0in /  0.0mm CLR
19:25 78.3 °F /  25.7 °C 66 °F /  18.9 °C 30.1in /  1019.1hPa SE 4mph /  6.4km/h 8.5mph /  13.7km/h 66% 0in /  0.0mm CLR
19:30 77.5 °F /  25.3 °C 66 °F /  18.9 °C 30.1in /  1019.1hPa SE 5.9mph /  9.5km/h 9.2mph /  14.8km/h 68% 0in /  0.0mm CLR
19:35 77.2 °F /  25.1 °C 66.2 °F /  19.0 °C 30.1in /  1019.2hPa SSE 5.9mph /  9.5km/h 9.2mph /  14.8km/h 69% 0in /  0.0mm CLR
19:40 76.8 °F /  24.9 °C 66.4 °F /  19.1 °C 30.1in /  1019.2hPa SE 6.2mph /  10.0km/h 10.4mph /  16.7km/h 70% 0in /  0.0mm CLR
19:45 76.5 °F /  24.7 °C 66.4 °F /  19.1 °C 30.1in /  1019.2hPa ESE 6.2mph /  10.0km/h 8.1mph /  13.0km/h 71% 0in /  0.0mm CLR
19:50 76.3 °F /  24.6 °C 66.2 °F /  19.0 °C 30.1in /  1019.4hPa ESE 5.9mph /  9.5km/h 10.4mph /  16.7km/h 71% 0in /  0.0mm CLR
19:55 75.9 °F /  24.4 °C 66.2 °F /  19.0 °C 30.1in /  1019.4hPa SE 5.9mph /  9.5km/h 9.2mph /  14.8km/h 72% 0in /  0.0mm CLR
20:00 75.7 °F /  24.3 °C 66.6 °F /  19.2 °C 30.1in /  1019.4hPa ESE 7mph /  11.3km/h 9mph /  14.5km/h 73% 0in /  0.0mm CLR
20:05 75.6 °F /  24.2 °C 66.4 °F /  19.1 °C 30.1in /  1019.4hPa ESE 6.4mph /  10.3km/h 9.2mph /  14.8km/h 73% 0in /  0.0mm CLR
20:10 75.4 °F /  24.1 °C 66.6 °F /  19.2 °C 30.1in /  1019.4hPa ESE 5.4mph /  8.7km/h 9.2mph /  14.8km/h 74% 0in /  0.0mm CLR
20:15 75 °F /  23.9 °C 66.6 °F /  19.2 °C 30.1in /  1019.4hPa East 5.4mph /  8.7km/h 6.2mph /  10.0km/h 75% 0in /  0.0mm CLR
20:20 74.8 °F /  23.8 °C 66.4 °F /  19.1 °C 30.1in /  1019.7hPa East 5.2mph /  8.4km/h 6.9mph /  11.1km/h 75% 0in /  0.0mm CLR
20:25 74.7 °F /  23.7 °C 66.6 °F /  19.2 °C 30.1in /  1019.7hPa ESE 5.2mph /  8.4km/h 8.1mph /  13.0km/h 76% 0in /  0.0mm CLR
20:30 74.5 °F /  23.6 °C 66.7 °F /  19.3 °C 30.1in /  1019.7hPa ENE 5.4mph /  8.7km/h 5.9mph /  9.5km/h 77% 0in /  0.0mm CLR
20:35 74.3 °F /  23.5 °C 66.6 °F /  19.2 °C 30.1in /  1019.6hPa NE 5.4mph /  8.7km/h 5.8mph /  9.3km/h 77% 0in /  0.0mm CLR
20:40 74.1 °F /  23.4 °C 66.7 °F /  19.3 °C 30.1in /  1019.6hPa NE 4.7mph /  7.6km/h 6.9mph /  11.1km/h 78% 0in /  0.0mm CLR
20:45 73.9 °F /  23.3 °C 66.6 °F /  19.2 °C 30.1in /  1019.6hPa NE 4.7mph /  7.6km/h 8.7mph /  14.0km/h 78% 0in /  0.0mm CLR
20:50 73.8 °F /  23.2 °C 66.6 °F /  19.2 °C 30.1in /  1019.7hPa NE 5.2mph /  8.4km/h 8.1mph /  13.0km/h 78% 0in /  0.0mm CLR
20:55 73.6 °F /  23.1 °C 66.7 °F /  19.3 °C 30.1in /  1019.7hPa NNE 5.2mph /  8.4km/h 6.9mph /  11.1km/h 79% 0in /  0.0mm CLR
21:00 73.6 °F /  23.1 °C 66.6 °F /  19.2 °C 30.1in /  1019.7hPa NNE 6mph /  9.7km/h 8mph /  12.9km/h 79% 0in /  0.0mm CLR
21:05 73.2 °F /  22.9 °C 66.7 °F /  19.3 °C 30.1in /  1019.8hPa NE 5.4mph /  8.7km/h 5.4mph /  8.7km/h 80% 0in /  0.0mm CLR
21:10 73 °F /  22.8 °C 66.9 °F /  19.4 °C 30.1in /  1019.8hPa NE 4.3mph /  6.9km/h 5.9mph /  9.5km/h 81% 0in /  0.0mm CLR
21:15 72.9 °F /  22.7 °C 66.7 °F /  19.3 °C 30.1in /  1019.8hPa NNE 4.3mph /  6.9km/h 5.8mph /  9.3km/h 81% 0in /  0.0mm CLR
21:20 72.7 °F /  22.6 °C 66.9 °F /  19.4 °C 30.1in /  1020.0hPa NE 4mph /  6.4km/h 6.9mph /  11.1km/h 82% 0in /  0.0mm CLR
21:25 72.3 °F /  22.4 °C 66.9 °F /  19.4 °C 30.1in /  1020.0hPa NNE 4mph /  6.4km/h 5.8mph /  9.3km/h 83% 0in /  0.0mm CLR
21:30 72.3 °F /  22.4 °C 66.9 °F /  19.4 °C 30.1in /  1020.0hPa North 4mph /  6.4km/h 6.9mph /  11.1km/h 83% 0in /  0.0mm CLR
21:35 72.1 °F /  22.3 °C 66.9 °F /  19.4 °C 30.1in /  1020.1hPa NE 4mph /  6.4km/h 5.8mph /  9.3km/h 84% 0in /  0.0mm CLR
21:40 72 °F /  22.2 °C 66.9 °F /  19.4 °C 30.1in /  1020.1hPa NNE 4.3mph /  6.9km/h 6.9mph /  11.1km/h 84% 0in /  0.0mm CLR
21:45 71.8 °F /  22.1 °C 66.9 °F /  19.4 °C 30.1in /  1020.1hPa NNE 4.3mph /  6.9km/h 5.8mph /  9.3km/h 85% 0in /  0.0mm CLR
21:50 71.8 °F /  22.1 °C 66.9 °F /  19.4 °C 30.1in /  1020.3hPa NE 4.3mph /  6.9km/h 5.8mph /  9.3km/h 85% 0in /  0.0mm FEW
21:55 71.6 °F /  22.0 °C 66.7 °F /  19.3 °C 30.1in /  1020.3hPa North 4.3mph /  6.9km/h 4.6mph /  7.4km/h 85% 0in /  0.0mm CLR
22:00 71.4 °F /  21.9 °C 66.7 °F /  19.3 °C 30.1in /  1020.3hPa NNE 3mph /  4.8km/h 5mph /  8.0km/h 85% 0in /  0.0mm CLR
22:05 71.4 °F /  21.9 °C 66.9 °F /  19.4 °C 30.1in /  1020.3hPa North 3.6mph /  5.8km/h 4.6mph /  7.4km/h 86% 0in /  0.0mm CLR
22:10 71.4 °F /  21.9 °C 66.9 °F /  19.4 °C 30.1in /  1020.3hPa NNE 3.1mph /  5.0km/h 2.3mph /  3.7km/h 86% 0in /  0.0mm FEW
22:15 71.2 °F /  21.8 °C 66.7 °F /  19.3 °C 30.1in /  1020.3hPa North 3.1mph /  5.0km/h 4.6mph /  7.4km/h 86% 0in /  0.0mm CLR
22:20 71.2 °F /  21.8 °C 66.7 °F /  19.3 °C 30.1in /  1020.4hPa NNW 2.4mph /  3.9km/h 3.6mph /  5.8km/h 86% 0in /  0.0mm BKN
22:25 71.1 °F /  21.7 °C 66.9 °F /  19.4 °C 30.1in /  1020.4hPa North 2.4mph /  3.9km/h 4.6mph /  7.4km/h 87% 0in /  0.0mm OVC
22:30 71.1 °F /  21.7 °C 66.9 °F /  19.4 °C 30.1in /  1020.4hPa NE 2.9mph /  4.7km/h 5.8mph /  9.3km/h 87% 0in /  0.0mm BKN
22:35 71.1 °F /  21.7 °C 66.9 °F /  19.4 °C 30.1in /  1020.3hPa ENE 2.9mph /  4.7km/h 5.8mph /  9.3km/h 87% 0in /  0.0mm OVC
22:40 70.9 °F /  21.6 °C 67.1 °F /  19.5 °C 30.1in /  1020.3hPa ENE 3.1mph /  5.0km/h 2.3mph /  3.7km/h 88% 0in /  0.0mm BKN
22:45 70.9 °F /  21.6 °C 67.1 °F /  19.5 °C 30.1in /  1020.3hPa NE 3.1mph /  5.0km/h 4.7mph /  7.6km/h 88% 0in /  0.0mm OVC
22:50 70.9 °F /  21.6 °C 67.1 °F /  19.5 °C 30.1in /  1020.2hPa NE 2mph /  3.2km/h 4.7mph /  7.6km/h 88% 0in /  0.0mm BKN
22:55 70.9 °F /  21.6 °C 67.1 °F /  19.5 °C 30.1in /  1020.2hPa ENE 2mph /  3.2km/h 3.5mph /  5.6km/h 88% 0in /  0.0mm OVC
23:00 70.7 °F /  21.5 °C 66.9 °F /  19.4 °C 30.1in /  1020.2hPa ENE 2mph /  3.2km/h 3mph /  4.8km/h 88% 0in /  0.0mm CLR
23:05 70.7 °F /  21.5 °C 66.9 °F /  19.4 °C 30.1in /  1020.5hPa ENE 2.9mph /  4.7km/h   88% 0in /  0.0mm OVC
23:10 70.7 °F /  21.5 °C 66.9 °F /  19.4 °C 30.1in /  1020.5hPa ENE 1.4mph /  2.3km/h 3.6mph /  5.8km/h 88% 0in /  0.0mm BKN
23:15 70.7 °F /  21.5 °C 66.9 °F /  19.4 °C 30.1in /  1020.5hPa ENE 1.4mph /  2.3km/h 3.5mph /  5.6km/h 88% 0in /  0.0mm OVC
23:20 70.7 °F /  21.5 °C 66.9 °F /  19.4 °C 30.1in /  1020.3hPa ENE 2mph /  3.2km/h 4.6mph /  7.4km/h 88% 0in /  0.0mm SCT
23:25 70.5 °F /  21.4 °C 66.7 °F /  19.3 °C 30.1in /  1020.3hPa ENE 2mph /  3.2km/h 3.5mph /  5.6km/h 88% 0in /  0.0mm
23:30 70.5 °F /  21.4 °C 67.1 °F /  19.5 °C 30.1in /  1020.3hPa ENE 1.8mph /  2.9km/h 2.4mph /  3.9km/h 89% 0in /  0.0mm SCT
23:35 70.5 °F /  21.4 °C 67.1 °F /  19.5 °C 30.1in /  1020.3hPa ENE 1.8mph /  2.9km/h 3.5mph /  5.6km/h 89% 0in /  0.0mm
23:40 70.5 °F /  21.4 °C 67.1 °F /  19.5 °C 30.1in /  1020.3hPa ENE 2mph /  3.2km/h 2.9mph /  4.7km/h 89% 0in /  0.0mm SCT
23:45 70.3 °F /  21.3 °C 66.6 °F /  19.2 °C 30.1in /  1020.3hPa ENE 2mph /  3.2km/h   88% 0in /  0.0mm
23:50 70.2 °F /  21.2 °C 66.4 °F /  19.1 °C 30.1in /  1020.2hPa ENE 1.4mph /  2.3km/h   88% 0in /  0.0mm FEW
23:55 70.2 °F /  21.2 °C 66.7 °F /  19.3 °C 30.1in /  1020.2hPa ENE 1.4mph /  2.3km/h 2.3mph /  3.7km/h 89% 0in /  0.0mm CLR
Murcia-Puente Tocinos, España
Compliments of Weather Underground - 2.75 mb

La estación de MeteoMurcia.com, publica sus datos en los siguientes proyectos:

Meteoclimatic www.awekas.at

W3Counter
Web Analytics